KEKX

Addington Field Airport

Elizabethtown, Kentucky, USA
METAR KEKX 252235Z AUTO 24004KT 10SM CLR 29/15 A2988 RMK AO2 T02860145
Observed Flight Rules
May-25 @ 22:35 UTC (8 minutes ago) Visual Flight Rules
Wind Visibility Clouds
240° at 4 knots 10 miles
  • Clear skies
Temperatures Readings
Current 29°C / 84°F
Dewpoint 15°C / 59°F
Humidity 43%
Altimeter 29.88" Hg
Pressure 1012 hPa
METAR KEKX 252235Z AUTO 24004KT 10SM CLR 29/15 A2988 RMK AO2 T02860145
Observed Flight Rules
May-25 @ 22:35 UTC
(8 minutes ago)
VFR
Wind Visibility
240° at 4 knots 10 miles
Clouds
  • Clear skies
Temperature Dewpoint
29°C / 84°F 15°C / 59°F
Humidity Altimeter Pressure
43% 29.88" Hg 1012 hPa